Time;durP1;ratioP1;P1;durP2;ratioP2;P2;SDS_P1;SDS_P2;PMS_P1;PMS_P2;Temp;Humidity;BMP_temperature;BMP_pressure;BME280_temperature;BME280_humidity;BME280_pressure;Samples;Min_cycle;Max_cycle;Signal;HPM_P1;HPM_P2
2021/06/28 00:01:01;;;;;;;13.23;12.07;;;21.30;99.90;;;;;;5051807;28;20420;-90
2021/06/28 00:03:27;;;;;;;13.00;11.90;;;21.40;99.90;;;;;;5052303;28;20408;-90
2021/06/28 00:05:53;;;;;;;12.83;11.83;;;21.40;99.90;;;;;;5033734;28;20435;-90
2021/06/28 00:08:18;;;;;;;13.33;12.33;;;21.40;99.90;;;;;;5049977;28;20209;-91
2021/06/28 00:10:44;;;;;;;13.30;12.20;;;21.20;99.90;;;;;;5051512;28;20177;-90
2021/06/28 00:13:10;;;;;;;12.50;11.40;;;21.30;99.90;;;;;;5051791;28;20603;-90
2021/06/28 00:15:37;;;;;;;11.20;10.30;;;21.20;99.90;;;;;;5049911;28;20264;-90
2021/06/28 00:18:06;;;;;;;12.27;11.20;;;21.20;99.90;;;;;;5052054;28;20644;-90
2021/06/28 00:20:33;;;;;;;13.40;12.00;;;21.20;99.90;;;;;;5051543;28;20497;-89
2021/06/28 00:22:59;;;;;;;13.07;11.97;;;21.20;99.90;;;;;;5017375;28;20933;-89
2021/06/28 00:25:25;;;;;;;15.07;13.63;;;21.20;99.90;;;;;;5037559;28;20749;-90
2021/06/28 00:27:51;;;;;;;14.87;13.57;;;21.10;99.90;;;;;;5037240;28;21106;-90
2021/06/28 00:30:20;;;;;;;14.83;13.63;;;20.70;99.90;;;;;;5054192;28;20188;-89
2021/06/28 00:32:47;;;;;;;14.00;12.80;;;20.40;99.90;;;;;;5036551;28;20798;-89
2021/06/28 00:35:13;;;;;;;14.70;13.40;;;20.10;99.90;;;;;;5055555;28;20525;-90
2021/06/28 00:37:40;;;;;;;14.20;12.90;;;19.90;99.90;;;;;;5042623;28;20483;-90
2021/06/28 00:40:09;;;;;;;14.40;13.30;;;19.80;99.90;;;;;;5017734;28;20472;-89
2021/06/28 00:42:35;;;;;;;14.50;13.40;;;19.80;99.90;;;;;;5016986;28;20923;-89
2021/06/28 00:45:14;;;;;;;15.50;14.20;;;19.80;99.90;;;;;;5034771;28;20559;-90
2021/06/28 00:47:40;;;;;;;14.87;13.67;;;19.80;99.90;;;;;;5034343;28;20555;-88
2021/06/28 00:50:06;;;;;;;14.57;13.23;;;19.70;99.90;;;;;;5034982;28;20504;-88
2021/06/28 00:52:32;;;;;;;15.53;14.23;;;19.70;99.90;;;;;;5043179;28;20683;-90
2021/06/28 00:54:58;;;;;;;14.10;12.90;;;19.80;99.90;;;;;;5054832;28;20408;-90
2021/06/28 00:57:25;;;;;;;14.47;13.17;;;19.80;99.90;;;;;;5054984;28;20849;-91
2021/06/28 00:59:51;;;;;;;14.23;13.10;;;19.90;99.90;;;;;;5053185;28;20174;-90
2021/06/28 01:02:17;;;;;;;14.20;13.00;;;20.00;99.90;;;;;;5054786;28;20539;-89
2021/06/28 01:04:43;;;;;;;14.80;13.20;;;20.00;99.90;;;;;;5053032;28;20177;-89
2021/06/28 01:07:08;;;;;;;14.53;13.33;;;20.10;99.90;;;;;;5020275;28;20343;-90
2021/06/28 01:09:36;;;;;;;15.23;13.93;;;20.20;99.90;;;;;;5054323;28;20515;-89
2021/06/28 01:12:03;;;;;;;15.30;14.10;;;20.20;99.90;;;;;;5053078;28;20189;-90
2021/06/28 01:14:30;;;;;;;13.60;12.47;;;20.10;99.90;;;;;;5036596;28;20424;-89
2021/06/28 01:16:57;;;;;;;13.63;12.53;;;20.20;99.90;;;;;;5053923;28;20424;-84
2021/06/28 01:19:27;;;;;;;15.20;13.90;;;20.20;99.90;;;;;;5036869;28;20887;-91
2021/06/28 01:21:54;;;;;;;14.20;13.00;;;20.30;99.90;;;;;;5054059;28;20405;-88
2021/06/28 01:24:20;;;;;;;13.80;12.50;;;20.30;99.90;;;;;;5054384;28;20470;-88
2021/06/28 01:26:46;;;;;;;13.80;12.70;;;20.40;99.90;;;;;;5053092;28;20452;-90
2021/06/28 01:29:12;;;;;;;13.57;12.40;;;20.40;99.90;;;;;;5054563;28;20989;-90
2021/06/28 01:31:37;;;;;;;14.03;12.90;;;20.50;99.90;;;;;;5035613;28;20174;-89
2021/06/28 01:34:03;;;;;;;15.13;13.63;;;20.60;99.90;;;;;;5054081;28;20177;-89
2021/06/28 01:36:29;;;;;;;14.77;13.33;;;20.60;99.90;;;;;;5052903;28;20174;-89
2021/06/28 01:38:55;;;;;;;14.13;13.10;;;20.60;99.90;;;;;;5035070;28;20181;-90
2021/06/28 01:41:20;;;;;;;13.77;12.67;;;20.60;99.90;;;;;;5054132;28;20566;-90
2021/06/28 01:43:46;;;;;;;15.13;13.47;;;20.70;99.90;;;;;;5051196;28;20634;-90
2021/06/28 01:46:12;;;;;;;15.13;13.87;;;20.70;99.90;;;;;;5030802;28;20230;-90
2021/06/28 01:48:39;;;;;;;14.90;13.70;;;20.70;99.90;;;;;;5053284;28;20217;-89
2021/06/28 01:51:05;;;;;;;13.77;12.57;;;20.70;99.90;;;;;;5054118;28;20178;-90
2021/06/28 01:53:31;;;;;;;14.43;13.33;;;20.70;99.90;;;;;;5019683;28;20408;-91
2021/06/28 01:55:57;;;;;;;15.07;13.77;;;20.70;99.90;;;;;;5052439;28;20408;-92
2021/06/28 01:58:23;;;;;;;14.53;13.33;;;20.70;99.90;;;;;;5053755;28;20431;-90
2021/06/28 02:00:54;;;;;;;14.43;13.23;;;20.70;99.90;;;;;;5053180;28;20208;-90
2021/06/28 02:03:23;;;;;;;13.17;12.00;;;20.70;99.90;;;;;;5053726;28;20174;-90
2021/06/28 02:05:50;;;;;;;13.57;12.37;;;20.70;99.90;;;;;;5035100;28;20884;-90
2021/06/28 02:08:17;;;;;;;13.33;12.33;;;20.60;99.90;;;;;;5035637;28;20518;-90
2021/06/28 02:10:48;;;;;;;14.73;13.47;;;20.70;99.90;;;;;;5052981;28;20424;-89
2021/06/28 02:13:15;;;;;;;13.47;12.30;;;20.70;99.90;;;;;;5035899;28;20396;-90
2021/06/28 02:15:41;;;;;;;14.77;12.73;;;20.70;99.90;;;;;;5053004;28;20428;-89
2021/06/28 02:18:07;;;;;;;13.13;12.13;;;20.70;99.90;;;;;;5053316;28;20415;-90
2021/06/28 02:20:32;;;;;;;13.40;12.33;;;20.70;99.90;;;;;;5052244;28;20170;-90
2021/06/28 02:23:20;;;;;;;12.57;11.47;;;20.70;99.90;;;;;;5052607;28;20661;-89
2021/06/28 02:25:48;;;;;;;11.70;10.80;;;20.70;99.90;;;;;;5052344;28;20419;-89
2021/06/28 02:28:14;;;;;;;11.87;10.93;;;20.70;99.90;;;;;;5035119;28;20452;-90
2021/06/28 02:30:39;;;;;;;13.23;12.13;;;20.70;99.90;;;;;;5052758;28;20420;-87
2021/06/28 02:33:05;;;;;;;14.00;12.70;;;20.70;99.90;;;;;;5051775;28;20491;-89
2021/06/28 02:35:32;;;;;;;14.10;12.90;;;20.60;99.90;;;;;;5052911;28;20640;-90
2021/06/28 02:37:58;;;;;;;14.13;13.03;;;20.60;99.90;;;;;;5051312;28;20261;-88
2021/06/28 02:40:24;;;;;;;13.47;12.33;;;20.60;99.90;;;;;;5051965;28;20516;-89
2021/06/28 02:42:49;;;;;;;13.37;12.07;;;20.60;99.90;;;;;;5052236;28;20174;-89
2021/06/28 02:45:16;;;;;;;14.17;12.87;;;20.60;99.90;;;;;;5051967;28;20225;-90
2021/06/28 02:47:41;;;;;;;13.37;12.30;;;20.60;99.90;;;;;;5046007;28;20207;-90
2021/06/28 02:50:09;;;;;;;12.03;11.23;;;20.60;99.90;;;;;;5041710;28;20428;-90
2021/06/28 02:52:35;;;;;;;13.63;12.43;;;20.60;99.90;;;;;;5034764;28;20192;-88
2021/06/28 02:55:01;;;;;;;13.90;12.60;;;20.60;99.90;;;;;;5039842;28;20971;-88
2021/06/28 02:57:27;;;;;;;12.13;11.07;;;20.60;99.90;;;;;;5035908;28;20189;-81
2021/06/28 02:59:53;;;;;;;13.10;12.10;;;20.60;99.90;;;;;;5014310;28;20504;-82
2021/06/28 03:02:18;;;;;;;14.83;13.63;;;20.60;99.90;;;;;;5015134;28;20174;-82
2021/06/28 03:04:44;;;;;;;16.00;14.60;;;20.60;99.90;;;;;;5014505;28;20174;-82
2021/06/28 03:07:10;;;;;;;15.97;14.47;;;20.60;99.90;;;;;;5032979;28;20277;-82
2021/06/28 03:09:35;;;;;;;14.47;13.27;;;20.60;99.90;;;;;;5032634;28;20257;-82
2021/06/28 03:12:01;;;;;;;14.10;12.80;;;20.50;99.90;;;;;;5014386;28;20174;-81
2021/06/28 03:14:27;;;;;;;15.10;13.90;;;20.50;99.90;;;;;;5032584;28;20615;-82
2021/06/28 03:16:52;;;;;;;15.10;14.00;;;20.50;99.90;;;;;;5032190;28;20239;-81
2021/06/28 03:19:18;;;;;;;14.63;13.40;;;20.50;99.90;;;;;;5032572;28;20175;-81
2021/06/28 03:21:44;;;;;;;13.90;12.67;;;20.50;99.90;;;;;;5031712;28;20200;-82
2021/06/28 03:24:10;;;;;;;14.77;13.57;;;20.50;99.90;;;;;;5032863;28;20217;-82
2021/06/28 03:26:35;;;;;;;15.57;14.30;;;20.50;99.90;;;;;;5032494;28;20170;-82
2021/06/28 03:29:01;;;;;;;14.47;13.37;;;20.50;99.90;;;;;;5051521;28;20212;-82
2021/06/28 03:31:30;;;;;;;14.77;13.47;;;20.50;99.90;;;;;;5052585;28;20261;-81
2021/06/28 03:33:56;;;;;;;13.87;12.87;;;20.50;99.90;;;;;;5051700;28;20197;-81
2021/06/28 03:36:21;;;;;;;13.47;12.30;;;20.40;99.90;;;;;;5052106;28;20420;-81
2021/06/28 03:38:47;;;;;;;16.07;14.80;;;20.40;99.90;;;;;;5033619;28;20170;-82
2021/06/28 03:41:13;;;;;;;13.30;12.10;;;20.40;99.90;;;;;;5052718;28;20581;-81
2021/06/28 03:43:39;;;;;;;14.97;13.77;;;20.40;99.90;;;;;;5036421;28;20273;-81
2021/06/28 03:46:05;;;;;;;14.13;13.03;;;20.40;99.90;;;;;;5027648;28;20228;-81
2021/06/28 03:48:31;;;;;;;13.97;12.70;;;20.40;99.90;;;;;;5052296;28;20304;-81
2021/06/28 03:50:56;;;;;;;15.27;14.17;;;20.40;99.90;;;;;;5051580;28;20519;-81
2021/06/28 03:53:22;;;;;;;15.43;14.20;;;20.40;99.90;;;;;;5052102;28;20174;-81
2021/06/28 03:55:48;;;;;;;15.83;14.47;;;20.40;99.90;;;;;;5051526;28;20178;-81
2021/06/28 03:58:13;;;;;;;14.73;13.53;;;20.40;99.90;;;;;;5055639;28;20188;-81
2021/06/28 04:00:39;;;;;;;15.33;14.03;;;20.40;99.90;;;;;;5056048;28;20235;-81
2021/06/28 04:03:06;;;;;;;14.53;13.30;;;20.40;99.90;;;;;;5046345;28;20179;-81
2021/06/28 04:05:32;;;;;;;14.83;13.53;;;20.40;99.90;;;;;;5035842;28;20265;-81
2021/06/28 04:07:58;;;;;;;14.90;13.60;;;20.40;99.90;;;;;;5035169;28;20475;-81
2021/06/28 04:10:25;;;;;;;14.77;13.57;;;20.40;99.90;;;;;;5035730;28;20417;-82
2021/06/28 04:12:53;;;;;;;15.10;13.70;;;20.40;99.90;;;;;;5035114;28;20573;-81
2021/06/28 04:15:20;;;;;;;16.23;14.77;;;20.50;99.90;;;;;;5035878;28;20507;-80
2021/06/28 04:17:49;;;;;;;15.23;14.03;;;20.50;99.90;;;;;;5035308;28;20500;-90
2021/06/28 04:20:17;;;;;;;16.30;15.00;;;20.50;99.90;;;;;;5035502;28;20506;-81
2021/06/28 04:22:44;;;;;;;15.27;14.07;;;20.50;99.90;;;;;;5042251;28;20412;-80
2021/06/28 04:25:12;;;;;;;15.03;13.70;;;20.50;99.90;;;;;;5054853;28;20436;-80
2021/06/28 04:27:39;;;;;;;17.90;16.20;;;20.50;99.90;;;;;;5055306;28;20806;-80
2021/06/28 04:30:07;;;;;;;16.50;15.13;;;20.60;99.90;;;;;;5053580;28;20415;-81
2021/06/28 04:32:35;;;;;;;15.87;14.67;;;20.60;99.90;;;;;;5055237;28;20470;-81
2021/06/28 04:35:05;;;;;;;15.50;14.30;;;20.60;99.90;;;;;;5054700;28;20771;-80
2021/06/28 04:37:31;;;;;;;16.73;15.27;;;20.60;99.90;;;;;;5055251;28;20959;-81
2021/06/28 04:39:57;;;;;;;15.77;14.50;;;20.60;99.90;;;;;;5036843;28;20495;-81
2021/06/28 04:42:23;;;;;;;17.60;16.10;;;20.60;99.90;;;;;;5054982;28;20448;-81
2021/06/28 04:44:48;;;;;;;20.27;18.30;;;20.60;99.90;;;;;;5054126;28;20230;-81
2021/06/28 04:47:14;;;;;;;20.20;18.50;;;20.70;99.90;;;;;;5037302;28;20255;-81
2021/06/28 04:49:40;;;;;;;18.07;16.30;;;20.70;99.90;;;;;;5037309;28;20186;-80
2021/06/28 04:52:06;;;;;;;19.60;17.90;;;20.70;99.90;;;;;;5053266;28;20169;-80
2021/06/28 04:54:31;;;;;;;17.83;16.23;;;20.80;99.90;;;;;;5053760;28;20181;-81
2021/06/28 04:56:57;;;;;;;20.27;18.10;;;20.80;99.90;;;;;;5054282;28;20404;-80
2021/06/28 04:59:23;;;;;;;23.43;18.63;;;20.80;99.90;;;;;;5054884;28;20173;-80
2021/06/28 05:01:49;;;;;;;20.20;18.47;;;20.90;99.90;;;;;;5052840;28;20185;-82
2021/06/28 05:04:14;;;;;;;20.80;18.20;;;20.90;99.90;;;;;;5017481;28;20181;-81
2021/06/28 05:06:40;;;;;;;24.97;17.50;;;20.90;99.90;;;;;;5034705;28;20177;-81
2021/06/28 05:09:08;;;;;;;18.67;15.60;;;20.90;99.90;;;;;;5033154;28;20456;-80
2021/06/28 05:11:36;;;;;;;20.10;17.97;;;21.00;99.90;;;;;;5034629;28;20174;-80
2021/06/28 05:14:02;;;;;;;23.53;16.90;;;21.00;99.90;;;;;;5033883;28;20418;-81
2021/06/28 05:16:28;;;;;;;19.70;17.37;;;21.00;99.90;;;;;;5016871;28;20436;-81
2021/06/28 05:18:54;;;;;;;19.40;17.43;;;21.00;99.90;;;;;;5034195;28;20449;-81
2021/06/28 05:21:19;;;;;;;18.63;16.97;;;21.00;99.90;;;;;;5034466;28;20190;-80
2021/06/28 05:23:45;;;;;;;16.77;15.30;;;21.00;99.90;;;;;;5034442;28;20265;-80
2021/06/28 05:26:11;;;;;;;16.90;15.57;;;21.00;99.90;;;;;;5033916;28;20166;-80
2021/06/28 05:28:37;;;;;;;17.37;15.87;;;21.00;99.90;;;;;;5034268;28;20225;-81
2021/06/28 05:31:03;;;;;;;17.50;15.80;;;21.10;99.90;;;;;;5040181;28;20182;-83
2021/06/28 05:33:29;;;;;;;17.67;15.97;;;21.10;99.90;;;;;;5046927;28;20185;-80
2021/06/28 05:35:55;;;;;;;17.90;16.30;;;21.20;99.90;;;;;;5053188;28;20401;-80
2021/06/28 05:38:21;;;;;;;18.77;17.07;;;21.20;99.90;;;;;;5051846;28;20772;-83
2021/06/28 05:40:47;;;;;;;19.43;17.83;;;21.20;99.90;;;;;;5040957;28;20241;-81
2021/06/28 05:43:12;;;;;;;17.73;16.23;;;21.30;99.90;;;;;;5048876;28;20580;-81
2021/06/28 05:45:38;;;;;;;19.57;17.90;;;21.30;99.90;;;;;;5038988;28;20229;-81
2021/06/28 05:48:04;;;;;;;20.33;18.83;;;21.30;99.90;;;;;;5044818;28;20467;-82
2021/06/28 05:50:31;;;;;;;18.90;17.20;;;21.40;99.90;;;;;;5041302;28;20193;-89
2021/06/28 05:52:58;;;;;;;20.67;18.67;;;21.40;99.90;;;;;;5048310;28;20416;-89
2021/06/28 05:55:24;;;;;;;19.47;17.73;;;21.50;99.90;;;;;;5041263;28;20428;-88
2021/06/28 05:57:51;;;;;;;22.37;20.67;;;21.60;99.90;;;;;;5049212;28;20420;-89
2021/06/28 06:00:19;;;;;;;19.00;17.37;;;21.70;99.90;;;;;;5052464;28;20420;-89
2021/06/28 06:02:45;;;;;;;18.97;17.37;;;22.00;99.90;;;;;;5036807;28;20420;-89
2021/06/28 06:05:11;;;;;;;17.80;16.30;;;22.10;99.90;;;;;;5039599;28;20672;-89
2021/06/28 06:07:38;;;;;;;21.10;19.17;;;22.20;99.90;;;;;;5049562;28;20302;-90
2021/06/28 06:10:10;;;;;;;19.80;18.00;;;22.20;99.90;;;;;;5035553;28;20475;-89
2021/06/28 06:12:36;;;;;;;22.60;20.53;;;22.30;99.90;;;;;;5042118;28;21007;-89
2021/06/28 06:15:03;;;;;;;20.97;19.07;;;22.20;99.90;;;;;;5042405;28;20440;-88
2021/06/28 06:17:29;;;;;;;19.53;17.83;;;22.20;99.90;;;;;;5040554;28;20184;-88
2021/06/28 06:19:54;;;;;;;12.57;11.67;;;22.30;99.90;;;;;;5052561;28;20491;-88
2021/06/28 06:22:20;;;;;;;14.23;12.87;;;22.40;99.90;;;;;;5052080;28;20166;-89
2021/06/28 06:24:46;;;;;;;13.87;12.87;;;22.60;99.90;;;;;;5053746;28;20292;-89
2021/06/28 06:27:11;;;;;;;12.63;11.53;;;22.80;99.90;;;;;;5049485;28;20443;-89
2021/06/28 06:29:37;;;;;;;11.47;10.47;;;22.90;99.90;;;;;;5044373;28;20257;-88
2021/06/28 06:32:04;;;;;;;19.50;17.53;;;23.00;99.90;;;;;;5032535;28;20198;-88
2021/06/28 06:34:29;;;;;;;19.30;17.63;;;23.20;99.90;;;;;;5041842;28;20178;-89
2021/06/28 06:36:55;;;;;;;18.80;17.00;;;23.20;99.90;;;;;;5038702;28;20440;-84
2021/06/28 06:39:21;;;;;;;20.03;18.23;;;23.20;99.90;;;;;;5052505;28;20235;-83
2021/06/28 06:41:47;;;;;;;19.67;17.73;;;23.10;99.90;;;;;;5052086;28;20625;-73
2021/06/28 06:44:13;;;;;;;18.67;17.03;;;23.10;99.90;;;;;;5043236;28;20647;-75
2021/06/28 06:46:39;;;;;;;23.77;21.60;;;23.10;99.90;;;;;;5051507;28;20456;-73
2021/06/28 06:49:06;;;;;;;18.67;16.87;;;23.10;99.90;;;;;;5051859;28;20247;-73
2021/06/28 06:51:33;;;;;;;20.83;19.17;;;23.00;99.90;;;;;;5043907;28;20424;-73
2021/06/28 06:53:59;;;;;;;19.20;17.03;;;23.10;99.90;;;;;;5037824;28;20988;-84
2021/06/28 06:56:25;;;;;;;19.33;17.63;;;23.10;99.90;;;;;;5047778;28;20495;-83
2021/06/28 06:58:52;;;;;;;18.00;16.40;;;23.10;99.90;;;;;;5049006;28;20506;-84
2021/06/28 07:01:18;;;;;;;18.13;16.43;;;23.20;99.90;;;;;;5043018;28;20408;-84
2021/06/28 07:03:44;;;;;;;17.03;15.33;;;23.30;99.90;;;;;;5052573;28;20474;-84
2021/06/28 07:06:10;;;;;;;18.50;16.87;;;23.40;99.90;;;;;;5051524;28;20173;-81
2021/06/28 07:08:37;;;;;;;16.73;15.30;;;23.50;99.90;;;;;;5034860;28;20471;-80
2021/06/28 07:11:06;;;;;;;18.30;16.43;;;23.50;99.90;;;;;;5031899;28;20248;-80
2021/06/28 07:13:32;;;;;;;17.80;16.27;;;23.60;99.90;;;;;;5044072;28;20424;-80
2021/06/28 07:15:57;;;;;;;18.50;16.90;;;23.60;99.90;;;;;;5044012;28;20427;-81
2021/06/28 07:18:23;;;;;;;18.27;16.80;;;23.60;99.90;;;;;;5052190;28;20424;-80
2021/06/28 07:20:49;;;;;;;18.00;16.40;;;23.60;99.90;;;;;;5052398;28;20185;-80
2021/06/28 07:23:15;;;;;;;19.57;17.83;;;23.60;99.90;;;;;;5046501;28;20432;-80
2021/06/28 07:25:41;;;;;;;16.70;15.40;;;23.70;99.90;;;;;;5051317;28;20423;-80
2021/06/28 07:28:07;;;;;;;19.33;17.83;;;23.70;99.90;;;;;;5045990;28;20260;-80
2021/06/28 07:30:33;;;;;;;15.87;14.47;;;23.80;99.90;;;;;;5047185;28;20680;-79
2021/06/28 07:32:59;;;;;;;17.23;15.93;;;23.80;99.90;;;;;;5045959;28;20408;-84
2021/06/28 07:35:25;;;;;;;17.40;16.00;;;23.90;99.90;;;;;;5039225;28;20256;-83
2021/06/28 07:37:51;;;;;;;17.40;15.73;;;24.00;99.90;;;;;;5051049;28;20208;-81
2021/06/28 07:40:19;;;;;;;18.40;16.80;;;24.10;99.90;;;;;;5042020;28;20448;-82
2021/06/28 07:42:48;;;;;;;17.60;16.00;;;24.10;99.90;;;;;;5042018;28;20190;-83
2021/06/28 07:45:16;;;;;;;17.80;16.30;;;24.30;99.90;;;;;;5062669;28;20455;-83
2021/06/28 07:47:43;;;;;;;17.30;15.70;;;24.30;99.90;;;;;;5076290;28;20540;-83
2021/06/28 07:50:10;;;;;;;17.80;16.27;;;24.40;99.90;;;;;;5057942;28;20511;-82
2021/06/28 07:52:36;;;;;;;15.70;14.50;;;24.50;99.90;;;;;;5070137;28;20416;-82
2021/06/28 07:55:04;;;;;;;14.27;13.17;;;24.50;99.90;;;;;;5069390;28;20439;-83
2021/06/28 07:57:30;;;;;;;14.33;13.13;;;24.60;99.90;;;;;;5071348;28;20446;-82
2021/06/28 07:59:56;;;;;;;14.93;13.70;;;24.70;99.90;;;;;;5057275;28;20415;-83
2021/06/28 08:02:21;;;;;;;14.70;13.60;;;24.80;99.90;;;;;;5074326;28;20701;-83
2021/06/28 08:04:48;;;;;;;15.27;13.97;;;24.80;99.90;;;;;;5071601;28;20219;-82
2021/06/28 08:07:14;;;;;;;14.33;13.03;;;24.90;99.90;;;;;;5070193;28;20209;-82
2021/06/28 08:09:39;;;;;;;14.50;13.30;;;24.90;99.90;;;;;;5062846;28;20508;-82
2021/06/28 08:12:05;;;;;;;14.73;13.60;;;24.90;99.90;;;;;;5072402;28;20181;-81
2021/06/28 08:14:31;;;;;;;20.17;18.57;;;24.90;99.90;;;;;;5058204;28;20193;-82
2021/06/28 08:16:57;;;;;;;17.20;15.57;;;25.00;99.90;;;;;;5067241;28;20939;-83
2021/06/28 08:19:23;;;;;;;15.03;13.73;;;25.00;99.90;;;;;;5071169;28;20173;-82
2021/06/28 08:21:48;;;;;;;15.80;14.60;;;25.00;99.90;;;;;;5067830;28;20203;-82
2021/06/28 08:24:15;;;;;;;17.10;15.70;;;25.00;99.90;;;;;;5064524;28;20170;-82
2021/06/28 08:26:41;;;;;;;16.00;14.30;;;25.00;99.90;;;;;;5060441;28;20169;-81
2021/06/28 08:29:07;;;;;;;15.57;14.37;;;25.00;99.90;;;;;;5054888;28;20462;-82
2021/06/28 08:31:36;;;;;;;14.80;13.77;;;25.00;99.90;;;;;;5056107;28;20178;-81
2021/06/28 08:34:03;;;;;;;14.90;13.50;;;25.00;99.90;;;;;;5064506;28;20499;-82
2021/06/28 08:36:28;;;;;;;16.77;15.50;;;25.10;99.90;;;;;;5061979;28;20424;-81
2021/06/28 08:38:55;;;;;;;17.83;16.43;;;25.10;99.90;;;;;;5053161;28;20511;-81
2021/06/28 08:41:23;;;;;;;15.53;14.40;;;25.10;99.90;;;;;;5064532;28;20184;-82
2021/06/28 08:43:48;;;;;;;15.40;14.23;;;25.10;99.90;;;;;;5065322;28;20486;-82
2021/06/28 08:46:15;;;;;;;14.43;13.37;;;25.10;99.90;;;;;;5045364;28;20498;-82
2021/06/28 08:48:45;;;;;;;14.47;13.37;;;25.10;99.90;;;;;;5038722;28;20302;-84
2021/06/28 08:51:12;;;;;;;15.20;14.00;;;25.20;99.90;;;;;;5042029;28;20416;-82
2021/06/28 08:53:39;;;;;;;15.23;14.03;;;25.30;99.90;;;;;;5038291;28;20451;-82
2021/06/28 08:56:09;;;;;;;14.67;13.57;;;25.50;99.90;;;;;;5053238;28;20427;-82
2021/06/28 08:58:39;;;;;;;15.60;14.40;;;25.70;99.90;;;;;;5044409;28;20425;-82
2021/06/28 09:01:06;;;;;;;13.60;12.70;;;25.90;99.90;;;;;;5053250;28;21011;-83
2021/06/28 09:03:32;;;;;;;12.70;11.70;;;26.10;99.90;;;;;;5054253;28;20416;-82
2021/06/28 09:06:04;;;;;;;12.47;11.57;;;26.20;99.90;;;;;;5039237;28;20778;-82
2021/06/28 09:08:34;;;;;;;14.70;13.50;;;26.40;99.90;;;;;;5034906;28;20448;-82
2021/06/28 09:11:01;;;;;;;11.27;10.47;;;26.60;99.90;;;;;;5034499;28;20389;-84
2021/06/28 09:13:48;;;;;;;13.23;12.33;;;26.80;99.90;;;;;;5048812;28;20412;-82
2021/06/28 09:16:29;;;;;;;14.90;14.00;;;27.00;99.90;;;;;;5046983;28;20425;-83
2021/06/28 09:19:08;;;;;;;10.53;9.90;;;27.20;98.80;;;;;;5039399;28;20412;-83
2021/06/28 09:21:38;;;;;;;10.60;9.90;;;27.30;95.20;;;;;;5054859;28;20432;-83
2021/06/28 09:24:09;;;;;;;11.00;10.20;;;27.40;95.00;;;;;;5053489;28;20431;-83
2021/06/28 09:26:37;;;;;;;13.50;12.60;;;27.40;93.40;;;;;;5045179;28;20503;-83
2021/06/28 09:29:06;;;;;;;14.50;13.60;;;27.20;92.70;;;;;;5048582;28;20539;-83
2021/06/28 09:31:46;;;;;;;11.80;11.10;;;27.00;93.30;;;;;;5046410;28;20499;-76
2021/06/28 09:34:21;;;;;;;11.37;10.60;;;27.00;94.40;;;;;;5042842;28;20397;-76
2021/06/28 09:36:54;;;;;;;12.60;11.67;;;26.90;94.60;;;;;;5051943;28;20966;-78
2021/06/28 09:39:24;;;;;;;11.67;10.80;;;26.80;94.80;;;;;;5038198;28;20782;-80
2021/06/28 09:41:57;;;;;;;12.13;11.23;;;26.80;95.50;;;;;;5047875;28;20423;-77
2021/06/28 09:44:24;;;;;;;14.47;13.40;;;26.90;96.60;;;;;;5050103;28;20443;-76
2021/06/28 09:47:10;;;;;;;22.43;20.77;;;26.90;97.00;;;;;;5072410;28;20938;-78
2021/06/28 09:49:38;;;;;;;13.60;12.40;;;26.90;96.80;;;;;;5073693;28;20431;-78
2021/06/28 09:52:05;;;;;;;14.50;13.50;;;26.90;97.00;;;;;;5055253;28;20751;-79
2021/06/28 09:54:34;;;;;;;13.20;12.30;;;27.00;97.20;;;;;;5058065;28;20428;-78
2021/06/28 09:57:00;;;;;;;18.20;16.60;;;27.10;98.40;;;;;;5049140;28;20411;-78
2021/06/28 09:59:27;;;;;;;13.67;12.60;;;27.30;99.90;;;;;;5053205;28;20868;-77
2021/06/28 10:02:25;;;;;;;14.10;13.10;;;27.50;99.60;;;;;;5054309;28;20265;-75
2021/06/28 10:07:29;;;;;;;14.20;13.20;;;27.80;97.30;;;;;;5072576;28;20450;-77
2021/06/28 10:10:06;;;;;;;12.87;12.00;;;28.00;97.50;;;;;;5073406;28;20422;-78
2021/06/28 10:12:33;;;;;;;9.83;9.23;;;28.00;95.10;;;;;;5073315;28;20411;-80
2021/06/28 10:14:59;;;;;;;10.37;9.67;;;27.90;92.40;;;;;;5073061;28;20521;-80
2021/06/28 10:17:25;;;;;;;10.00;9.30;;;28.00;92.90;;;;;;5054923;28;20815;-79
2021/06/28 10:19:50;;;;;;;8.80;8.30;;;28.10;93.00;;;;;;5053768;28;20400;-80
2021/06/28 10:22:17;;;;;;;9.83;9.13;;;28.10;90.80;;;;;;5052864;28;20532;-81
2021/06/28 10:24:43;;;;;;;10.03;9.20;;;28.20;91.90;;;;;;5065045;28;20408;-81
2021/06/28 10:27:09;;;;;;;10.03;9.33;;;28.20;91.60;;;;;;5072668;28;20403;-79
2021/06/28 10:29:35;;;;;;;10.10;9.40;;;28.20;90.70;;;;;;5073809;28;20453;-79
2021/06/28 10:32:07;;;;;;;9.90;9.30;;;28.00;90.80;;;;;;5073634;28;20414;-78
2021/06/28 10:34:34;;;;;;;10.00;9.40;;;28.10;91.20;;;;;;5059321;28;20763;-81
2021/06/28 10:37:02;;;;;;;10.43;9.10;;;28.20;90.60;;;;;;5067870;28;20427;-79
2021/06/28 10:39:31;;;;;;;9.43;8.60;;;28.40;89.90;;;;;;5052646;28;20408;-79
2021/06/28 10:41:58;;;;;;;10.80;10.10;;;28.50;89.20;;;;;;5064771;28;20427;-80
2021/06/28 10:44:28;;;;;;;9.17;8.67;;;28.60;88.80;;;;;;5072172;28;20415;-79
2021/06/28 10:46:56;;;;;;;10.10;9.50;;;28.50;84.70;;;;;;5051842;28;20427;-77
2021/06/28 10:49:42;;;;;;;10.60;10.00;;;28.40;88.50;;;;;;5050456;28;20460;-80
2021/06/28 10:52:08;;;;;;;10.37;9.77;;;28.20;88.30;;;;;;5051492;28;20430;-76
2021/06/28 10:54:36;;;;;;;10.73;10.03;;;28.20;89.20;;;;;;5051992;28;20495;-81
2021/06/28 10:57:03;;;;;;;11.10;10.40;;;28.10;88.10;;;;;;5037169;28;20187;-73
2021/06/28 10:59:31;;;;;;;12.17;11.47;;;28.10;89.10;;;;;;5029053;28;20911;-74
2021/06/28 11:02:05;;;;;;;17.03;15.73;;;27.90;88.60;;;;;;5034601;28;20434;-72
2021/06/28 11:04:57;;;;;;;13.63;12.73;;;27.70;87.90;;;;;;5051832;28;20419;-73
2021/06/28 11:07:24;;;;;;;19.23;17.50;;;27.60;89.90;;;;;;5030196;28;20474;-73
2021/06/28 11:09:56;;;;;;;13.43;12.33;;;27.60;90.30;;;;;;5037592;28;20416;-73
2021/06/28 11:12:35;;;;;;;11.83;11.13;;;27.60;91.10;;;;;;5051934;28;20827;-73
2021/06/28 11:15:02;;;;;;;11.27;10.53;;;27.40;90.50;;;;;;5052512;28;20435;-73
2021/06/28 11:17:52;;;;;;;12.40;11.60;;;27.40;90.40;;;;;;5050672;28;20442;-73
2021/06/28 11:20:34;;;;;;;15.40;14.30;;;27.40;91.30;;;;;;5051814;28;20404;-73
2021/06/28 11:23:16;;;;;;;12.87;12.00;;;27.60;95.00;;;;;;5051527;28;20466;-73
2021/06/28 11:25:53;;;;;;;14.43;13.53;;;27.70;93.90;;;;;;5040924;28;20482;-77
2021/06/28 11:28:45;;;;;;;12.57;11.77;;;27.80;92.80;;;;;;5014045;28;20529;-76
2021/06/28 11:31:16;;;;;;;12.90;12.07;;;28.00;93.90;;;;;;5028165;28;20428;-76
2021/06/28 11:33:43;;;;;;;13.60;12.73;;;28.10;92.60;;;;;;5032337;28;20385;-76
2021/06/28 11:36:27;;;;;;;13.03;12.13;;;28.10;91.70;;;;;;5050481;28;20432;-77
2021/06/28 11:38:59;;;;;;;13.40;12.50;;;28.10;89.70;;;;;;5052140;28;20416;-76
2021/06/28 11:41:27;;;;;;;13.77;12.70;;;28.00;91.00;;;;;;5051026;28;20912;-79
2021/06/28 11:43:58;;;;;;;13.40;12.50;;;28.10;94.10;;;;;;5051441;28;20881;-77
2021/06/28 11:46:29;;;;;;;12.83;11.83;;;28.30;94.90;;;;;;5033183;28;20828;-77
2021/06/28 11:49:12;;;;;;;11.37;10.67;;;28.30;93.80;;;;;;5072314;28;21147;-76
2021/06/28 11:51:41;;;;;;;12.30;11.40;;;28.40;92.30;;;;;;5072505;28;20894;-76
2021/06/28 11:54:13;;;;;;;12.40;11.63;;;28.40;91.50;;;;;;5072140;28;20839;-77
2021/06/28 11:56:42;;;;;;;11.93;11.23;;;28.40;92.30;;;;;;5072172;28;20751;-77
2021/06/28 11:59:13;;;;;;;14.10;13.13;;;28.40;91.20;;;;;;5066567;28;20518;-77
2021/06/28 12:01:43;;;;;;;10.70;10.10;;;28.40;90.00;;;;;;5071569;28;20404;-79
2021/06/28 12:04:15;;;;;;;11.07;10.30;;;28.30;89.30;;;;;;5072003;28;20445;-78
2021/06/28 12:06:41;;;;;;;10.50;9.83;;;28.30;89.60;;;;;;5072016;28;20801;-81
2021/06/28 12:09:16;;;;;;;10.70;9.93;;;28.20;90.40;;;;;;5071885;28;20945;-82
2021/06/28 12:12:21;;;;;;;7.53;7.13;;;28.20;90.00;;;;;;5071919;28;20423;-80
2021/06/28 12:14:49;;;;;;;7.97;7.47;;;28.10;84.40;;;;;;5067014;28;20423;-80
2021/06/28 12:17:21;;;;;;;7.27;6.77;;;28.00;85.30;;;;;;5068709;28;20914;-84
2021/06/28 12:19:48;;;;;;;9.50;8.80;;;28.00;83.70;;;;;;5075360;28;20506;-79
2021/06/28 12:22:15;;;;;;;8.57;8.07;;;27.90;84.20;;;;;;5072602;28;20427;-82
2021/06/28 12:24:42;;;;;;;8.57;8.07;;;27.80;84.90;;;;;;5069768;28;20526;-76
2021/06/28 12:27:17;;;;;;;8.90;8.10;;;27.80;85.60;;;;;;5075204;28;20514;-76
2021/06/28 12:29:44;;;;;;;9.13;8.57;;;27.70;87.70;;;;;;5074352;28;20906;-77
2021/06/28 12:32:41;;;;;;;11.87;11.07;;;27.70;89.90;;;;;;5068720;28;20776;-76
2021/06/28 12:35:10;;;;;;;11.40;10.70;;;27.70;91.80;;;;;;5070535;28;20427;-76